Time;durP1;ratioP1;P1;durP2;ratioP2;P2;SDS_P1;SDS_P2;PMS_P1;PMS_P2;Temp;Humidity;BMP_temperature;BMP_pressure;BME280_temperature;BME280_humidity;BME280_pressure;Samples;Min_cycle;Max_cycle;Signal;HPM_P1;HPM_P2
2022/12/22 03:26:26;;;;;;;17.80;7.72;;;;;;;2.62;63.38;100371.63;1769834;80;21026;-60
2022/12/22 03:28:52;;;;;;;20.15;8.23;;;;;;;2.64;63.40;100368.06;1772055;79;21054;-61
2022/12/22 03:31:19;;;;;;;13.85;8.40;;;;;;;2.65;63.42;100370.19;1763567;80;21089;-60
2022/12/22 03:33:45;;;;;;;25.80;17.15;;;;;;;2.66;63.39;100371.89;1766557;80;21073;-60
2022/12/22 03:36:12;;;;;;;16.15;8.85;;;;;;;2.64;63.44;100368.06;1773704;80;21232;-60
2022/12/22 03:38:39;;;;;;;19.20;9.40;;;;;;;2.67;63.43;100369.19;1771458;79;21064;-60
2022/12/22 03:41:05;;;;;;;15.85;7.75;;;;;;;2.67;63.45;100372.25;1770815;80;21507;-60
2022/12/22 03:46:29;;;;;;;16.80;8.73;;;;;;;2.68;63.42;100377.38;1766312;80;21066;-60
2022/12/22 03:49:09;;;;;;;20.23;9.53;;;;;;;2.69;63.45;100373.88;1766037;80;21071;-60
2022/12/22 03:51:45;;;;;;;17.77;8.43;;;;;;;2.69;63.41;100373.02;1762789;80;21547;-60
2022/12/22 03:54:14;;;;;;;17.82;9.78;;;;;;;2.69;63.43;100369.98;1773525;80;20991;-60
2022/12/22 03:56:41;;;;;;;17.60;9.90;;;;;;;2.72;63.32;100368.98;1770239;80;21078;-60
2022/12/22 03:59:07;;;;;;;21.85;9.63;;;;;;;2.70;63.38;100355.22;1715377;82;21023;-60
2022/12/22 04:01:41;;;;;;;19.27;8.73;;;;;;;2.75;63.36;100355.37;1710805;82;21969;-59
2022/12/22 04:04:08;;;;;;;20.65;9.75;;;;;;;2.74;63.32;100343.32;1689939;82;21025;-60
2022/12/22 04:06:34;;;;;;;19.55;8.60;;;;;;;2.77;63.32;100337.12;1701961;83;21063;-60
2022/12/22 04:09:01;;;;;;;17.62;8.98;;;;;;;2.75;63.34;100324.20;1777012;80;21044;-60
2022/12/22 04:14:13;;;;;;;18.45;8.48;;;;;;;2.77;63.19;100333.22;1777571;80;21244;-59
2022/12/22 04:16:39;;;;;;;25.80;17.82;;;;;;;2.77;63.08;100331.48;1766622;80;21047;-59
2022/12/22 04:20:27;;;;;;;20.95;10.80;;;;;;;2.61;63.63;100329.23;1829271;75;23363;-59
2022/12/22 04:22:54;;;;;;;18.30;9.05;;;;;;;2.81;63.14;100342.56;1804452;78;21041;-60
2022/12/22 04:25:21;;;;;;;19.20;10.60;;;;;;;2.82;63.16;100335.60;1805663;78;21251;-59
2022/12/22 04:27:48;;;;;;;16.55;8.90;;;;;;;2.85;63.17;100333.69;1810269;77;21010;-60
2022/12/22 04:30:15;;;;;;;15.48;8.03;;;;;;;2.87;63.15;100332.32;1819595;77;21046;-59
2022/12/22 04:32:42;;;;;;;17.90;8.30;;;;;;;2.87;63.05;100329.72;1812909;77;21050;-59
2022/12/22 04:35:09;;;;;;;21.23;9.55;;;;;;;2.85;63.02;100332.86;1819821;77;21009;-59
2022/12/22 04:37:35;;;;;;;21.85;9.63;;;;;;;2.83;63.01;100334.23;1809428;78;21250;-60
2022/12/22 04:40:03;;;;;;;16.50;7.95;;;;;;;2.81;62.97;100335.20;1808353;78;21081;-60
2022/12/22 04:42:30;;;;;;;19.98;9.60;;;;;;;2.78;63.02;100340.11;1809694;78;21519;-62
2022/12/22 04:44:56;;;;;;;21.93;10.20;;;;;;;2.75;63.12;100333.30;1809382;78;21484;-60
2022/12/22 04:47:23;;;;;;;18.55;9.78;;;;;;;2.74;63.17;100333.36;1812245;78;21529;-60
2022/12/22 04:49:49;;;;;;;17.92;9.58;;;;;;;2.75;63.21;100331.99;1803380;78;21213;-60
2022/12/22 04:52:16;;;;;;;17.95;9.28;;;;;;;2.76;63.25;100331.09;1793078;77;21863;-60
2022/12/22 04:54:43;;;;;;;25.97;18.35;;;;;;;2.78;63.19;100339.64;1821438;78;21077;-60
2022/12/22 04:57:09;;;;;;;40.60;9.65;;;;;;;2.77;63.14;100339.28;1795444;78;20982;-60
2022/12/22 04:59:36;;;;;;;27.77;19.82;;;;;;;2.79;63.13;100340.04;1798487;78;21107;-60
2022/12/22 05:02:02;;;;;;;20.45;8.83;;;;;;;2.78;63.15;100333.61;1814211;78;21137;-60
2022/12/22 05:04:29;;;;;;;18.05;9.05;;;;;;;2.78;63.12;100331.84;1806210;78;21046;-60
2022/12/22 05:06:56;;;;;;;18.05;9.28;;;;;;;2.80;63.24;100327.88;1819619;77;21049;-59
2022/12/22 05:09:22;;;;;;;24.35;11.65;;;;;;;2.83;63.25;100319.94;1816822;77;21038;-60
2022/12/22 05:11:49;;;;;;;18.45;8.78;;;;;;;2.87;63.24;100329.72;1789087;80;21073;-60
2022/12/22 05:14:16;;;;;;;19.12;9.40;;;;;;;2.90;63.20;100332.17;1806932;77;21246;-60
2022/12/22 05:16:42;;;;;;;20.43;10.50;;;;;;;2.98;62.95;100331.34;1811676;78;21031;-60
2022/12/22 05:19:09;;;;;;;17.42;9.65;;;;;;;3.06;62.77;100339.61;1810287;77;21015;-60
2022/12/22 05:21:36;;;;;;;18.20;9.55;;;;;;;3.12;62.61;100331.48;1801790;78;21000;-60
2022/12/22 05:24:04;;;;;;;18.92;11.08;;;;;;;3.16;62.62;100338.23;1792117;79;21058;-60
2022/12/22 05:26:30;;;;;;;22.82;11.48;;;;;;;3.22;62.78;100344.04;1791430;77;22038;-60
2022/12/22 05:28:57;;;;;;;29.02;21.68;;;;;;;3.23;62.63;100344.41;1750508;80;21053;-59
2022/12/22 05:31:24;;;;;;;23.12;11.60;;;;;;;3.25;62.53;100349.09;1791148;78;21063;-60
2022/12/22 05:33:51;;;;;;;22.50;10.63;;;;;;;3.25;62.38;100359.50;1759138;80;21480;-59
2022/12/22 05:36:17;;;;;;;18.07;9.03;;;;;;;3.21;62.38;100356.65;1797633;78;21555;-59
2022/12/22 05:38:44;;;;;;;30.55;23.00;;;;;;;3.16;62.32;100362.93;1791176;79;21239;-59
2022/12/22 05:41:10;;;;;;;20.20;11.03;;;;;;;3.14;62.39;100360.02;1792520;78;21587;-59
2022/12/22 05:43:37;;;;;;;16.32;9.98;;;;;;;3.14;62.33;100360.88;1799776;77;21048;-59
2022/12/22 05:46:06;;;;;;;21.33;10.53;;;;;;;3.10;62.35;100352.83;1788772;79;21054;-59
2022/12/22 05:48:33;;;;;;;21.82;11.18;;;;;;;3.10;62.38;100351.99;1802516;78;21070;-59
2022/12/22 05:51:00;;;;;;;18.20;9.50;;;;;;;3.09;62.37;100352.90;1797329;78;21124;-59
2022/12/22 05:53:28;;;;;;;32.50;21.82;;;;;;;3.05;62.34;100360.48;1797255;79;21082;-59
2022/12/22 05:55:54;;;;;;;20.27;10.63;;;;;;;3.02;62.41;100360.16;1795863;79;21059;-59
2022/12/22 05:58:21;;;;;;;20.80;12.05;;;;;;;2.98;62.46;100349.54;1796739;78;21007;-59
2022/12/22 06:00:49;;;;;;;20.85;11.97;;;;;;;2.94;62.52;100347.98;1787287;78;21030;-59
2022/12/22 06:03:15;;;;;;;19.70;10.58;;;;;;;2.93;62.63;100347.16;1747676;79;21205;-59
2022/12/22 06:05:42;;;;;;;20.52;11.55;;;;;;;2.98;62.64;100350.38;1801732;78;21106;-60
2022/12/22 06:08:08;;;;;;;18.52;10.08;;;;;;;3.01;62.71;100348.53;1796152;78;21043;-60
2022/12/22 06:10:35;;;;;;;21.10;11.65;;;;;;;3.07;62.67;100347.77;1795021;78;21364;-60
2022/12/22 06:13:02;;;;;;;21.35;12.30;;;;;;;3.08;62.63;100352.06;1757634;79;21376;-60
2022/12/22 06:15:29;;;;;;;23.30;12.37;;;;;;;3.11;62.51;100349.32;1792595;78;22473;-60
2022/12/22 06:17:56;;;;;;;23.10;12.68;;;;;;;3.10;62.46;100360.62;1758129;79;21122;-60
2022/12/22 06:20:23;;;;;;;23.77;11.43;;;;;;;3.11;62.46;100372.72;1800917;78;21011;-60
2022/12/22 06:22:49;;;;;;;17.50;11.78;;;;;;;3.11;62.38;100376.63;1810139;78;21018;-60
2022/12/22 06:25:16;;;;;;;25.00;14.43;;;;;;;3.12;62.34;100374.85;1806338;78;21102;-60
2022/12/22 06:27:43;;;;;;;23.40;12.20;;;;;;;3.11;62.29;100362.32;1803832;77;21893;-59
2022/12/22 06:30:11;;;;;;;22.35;12.30;;;;;;;3.11;62.23;100376.63;1804169;78;21014;-59
2022/12/22 06:32:38;;;;;;;21.33;11.75;;;;;;;3.12;62.13;100376.98;1809963;78;21539;-59
2022/12/22 06:35:06;;;;;;;19.32;10.10;;;;;;;3.09;62.17;100390.16;1798584;77;21035;-60
2022/12/22 06:37:34;;;;;;;17.52;10.65;;;;;;;3.11;62.13;100389.63;1804998;78;21019;-60
2022/12/22 06:40:01;;;;;;;17.95;10.48;;;;;;;3.11;62.18;100396.12;1801148;78;21015;-60
2022/12/22 06:45:13;;;;;;;45.98;30.72;;;;;;;3.15;62.17;100400.70;1797589;78;21035;-59
2022/12/22 06:47:40;;;;;;;26.65;15.10;;;;;;;3.19;62.15;100399.63;1797207;78;21058;-60
2022/12/22 06:50:08;;;;;;;47.48;29.65;;;;;;;3.23;62.13;100399.02;1802811;78;21038;-59
2022/12/22 06:52:35;;;;;;;21.48;11.35;;;;;;;3.25;62.08;100386.34;1802377;77;21867;-60
2022/12/22 06:55:03;;;;;;;21.55;11.65;;;;;;;3.29;61.96;100394.82;1803515;78;21003;-60
2022/12/22 06:57:30;;;;;;;22.75;12.23;;;;;;;3.28;61.88;100399.19;1797991;78;21543;-59
2022/12/22 06:59:57;;;;;;;33.98;17.87;;;;;;;3.29;61.82;100393.05;1784025;79;21016;-59
2022/12/22 07:02:23;;;;;;;19.67;13.43;;;;;;;3.28;61.94;100395.29;1763159;79;21047;-60
2022/12/22 07:04:50;;;;;;;21.12;13.38;;;;;;;3.29;61.86;100391.75;1761566;80;21183;-60
2022/12/22 07:07:16;;;;;;;24.90;14.90;;;;;;;3.30;61.90;100389.55;1765454;80;21054;-60
2022/12/22 07:09:43;;;;;;;34.65;25.15;;;;;;;3.33;61.92;100393.30;1808827;77;20995;-60
2022/12/22 07:12:10;;;;;;;19.95;11.57;;;;;;;3.37;61.88;100399.19;1737508;81;21047;-59
2022/12/22 07:14:36;;;;;;;15.43;11.10;;;;;;;3.41;61.84;100391.59;1799596;78;22392;-59
2022/12/22 07:17:03;;;;;;;21.90;14.05;;;;;;;3.45;61.75;100386.64;1744303;81;21239;-59
2022/12/22 07:19:29;;;;;;;38.92;26.45;;;;;;;3.48;61.65;100389.53;1808050;78;21073;-60
2022/12/22 07:21:56;;;;;;;35.40;23.27;;;;;;;3.52;61.49;100386.70;1800932;78;21051;-59
2022/12/22 07:24:24;;;;;;;17.73;8.98;;;;;;;3.54;61.33;100388.77;1798564;78;21092;-60
2022/12/22 07:26:51;;;;;;;23.38;11.12;;;;;;;3.58;61.32;100388.61;1797711;77;21063;-60
2022/12/22 07:29:18;;;;;;;28.35;21.10;;;;;;;3.60;61.20;100391.97;1803913;78;21871;-60
2022/12/22 07:31:45;;;;;;;26.48;14.55;;;;;;;3.59;61.13;100382.50;1795633;78;21072;-60
2022/12/22 07:34:12;;;;;;;23.92;12.58;;;;;;;3.62;61.14;100393.59;1806672;78;20980;-61
2022/12/22 07:36:39;;;;;;;29.57;21.95;;;;;;;3.65;61.11;100388.70;1805090;78;21626;-60
2022/12/22 07:39:05;;;;;;;21.12;12.78;;;;;;;3.68;61.03;100394.59;1804454;78;21015;-60
2022/12/22 07:44:17;;;;;;;21.90;13.32;;;;;;;3.71;60.82;100411.32;1810320;78;21030;-58
2022/12/22 07:46:44;;;;;;;22.30;12.33;;;;;;;3.66;60.69;100417.69;1804800;78;21026;-59
2022/12/22 07:51:56;;;;;;;24.15;12.13;;;;;;;3.63;60.72;100408.73;1798911;78;21107;-60
2022/12/22 07:54:23;;;;;;;31.60;22.50;;;;;;;3.65;60.81;100412.12;1808023;78;21832;-58
2022/12/22 07:56:49;;;;;;;20.82;10.55;;;;;;;3.65;60.82;100408.22;1800767;78;21004;-58
2022/12/22 07:59:16;;;;;;;21.07;13.03;;;;;;;3.68;60.89;100409.34;1808557;77;21077;-59
2022/12/22 08:01:44;;;;;;;23.98;13.13;;;;;;;3.73;60.82;100406.04;1799045;78;20992;-59
2022/12/22 08:04:11;;;;;;;26.93;16.87;;;;;;;3.75;60.79;100404.23;1806941;78;21004;-59
2022/12/22 08:06:38;;;;;;;63.05;45.63;;;;;;;3.78;60.64;100404.04;1804911;78;21182;-58
2022/12/22 08:09:05;;;;;;;24.75;13.45;;;;;;;3.81;60.53;100392.64;1801958;78;21089;-59
2022/12/22 08:11:32;;;;;;;31.73;19.23;;;;;;;3.86;60.41;100414.91;1811948;78;21090;-59
2022/12/22 08:13:59;;;;;;;34.60;25.15;;;;;;;3.87;60.38;100408.79;1798180;78;21086;-59
2022/12/22 08:16:25;;;;;;;20.32;12.00;;;;;;;3.88;60.35;100422.20;1808973;77;21046;-59
2022/12/22 08:18:52;;;;;;;20.10;11.28;;;;;;;3.94;60.20;100425.41;1804838;78;21255;-59
2022/12/22 08:21:18;;;;;;;19.92;12.25;;;;;;;4.02;59.89;100425.85;1795351;77;21030;-59
2022/12/22 08:23:45;;;;;;;25.27;12.90;;;;;;;4.11;59.67;100414.94;1748539;80;21054;-58
2022/12/22 08:27:56;;;;;;;37.95;25.25;;;;;;;4.24;59.85;100396.44;1791612;77;22552;-58
2022/12/22 08:30:23;;;;;;;21.73;13.28;;;;;;;4.39;59.13;100396.08;1741995;80;21073;-59
2022/12/22 08:32:50;;;;;;;32.50;24.07;;;;;;;4.41;58.90;100392.92;1766429;80;21367;-60
2022/12/22 08:35:16;;;;;;;23.65;12.47;;;;;;;4.41;58.77;100399.91;1753477;80;21627;-59
2022/12/22 08:37:43;;;;;;;19.80;12.33;;;;;;;4.44;58.78;100407.09;1774033;80;21039;-59
2022/12/22 08:40:19;;;;;;;29.35;23.57;;;;;;;4.48;58.53;100392.59;1775390;80;20991;-58
2022/12/22 08:42:46;;;;;;;17.60;10.53;;;;;;;4.52;58.40;100394.93;1770151;80;21761;-58
2022/12/22 08:45:12;;;;;;;25.10;13.93;;;;;;;4.48;58.42;100388.22;1771280;80;22124;-58
2022/12/22 08:47:39;;;;;;;22.73;11.35;;;;;;;4.47;58.59;100378.71;1773211;80;21102;-58
2022/12/22 08:50:07;;;;;;;27.52;15.78;;;;;;;4.48;58.41;100374.36;1768120;80;21058;-59
2022/12/22 08:52:34;;;;;;;26.40;15.25;;;;;;;4.45;58.28;100376.66;1773480;80;21477;-59
2022/12/22 08:55:00;;;;;;;21.97;13.08;;;;;;;4.43;58.37;100383.25;1756474;80;21543;-59
2022/12/22 08:57:26;;;;;;;32.80;23.20;;;;;;;4.42;58.51;100382.03;1775375;78;21461;-58
2022/12/22 08:59:53;;;;;;;21.57;12.05;;;;;;;4.43;58.57;100378.52;1771853;80;20891;-59
2022/12/22 09:02:19;;;;;;;38.73;27.32;;;;;;;4.45;58.56;100376.66;1778004;78;21046;-59
2022/12/22 09:04:47;;;;;;;23.87;12.00;;;;;;;4.47;58.45;100374.80;1767284;80;21551;-60
2022/12/22 09:07:13;;;;;;;22.42;12.68;;;;;;;4.49;58.55;100378.63;1772560;80;21538;-60
2022/12/22 09:09:40;;;;;;;37.73;27.42;;;;;;;4.48;58.37;100370.45;1775905;78;21886;-62
2022/12/22 09:12:07;;;;;;;25.12;14.73;;;;;;;4.46;58.39;100372.67;1779082;78;21057;-59
2022/12/22 09:14:34;;;;;;;34.45;24.23;;;;;;;4.45;58.37;100372.31;1773105;80;21512;-60
2022/12/22 09:17:01;;;;;;;35.05;25.77;;;;;;;4.43;58.45;100366.31;1773453;80;21039;-60
2022/12/22 09:19:29;;;;;;;27.25;12.18;;;;;;;4.49;58.50;100377.33;1771635;78;21058;-58
2022/12/22 09:21:55;;;;;;;34.65;25.57;;;;;;;4.50;58.50;100372.50;1775124;80;21216;-58
2022/12/22 09:24:22;;;;;;;36.10;26.60;;;;;;;4.50;58.39;100369.42;1770180;80;21058;-59
2022/12/22 09:26:48;;;;;;;24.37;12.20;;;;;;;4.53;58.45;100371.87;1771751;78;21093;-59
2022/12/22 09:29:15;;;;;;;35.05;24.85;;;;;;;4.55;58.53;100368.70;1764201;80;21075;-59
2022/12/22 09:31:42;;;;;;;33.85;24.92;;;;;;;4.62;58.38;100371.38;1770392;79;20983;-59
2022/12/22 09:34:09;;;;;;;22.20;15.05;;;;;;;4.65;58.29;100372.48;1766529;80;21910;-59
2022/12/22 09:36:39;;;;;;;23.98;13.62;;;;;;;4.70;58.29;100372.23;1768674;80;21627;-58
2022/12/22 09:39:06;;;;;;;34.58;24.90;;;;;;;4.73;58.22;100370.77;1767197;79;21039;-59
2022/12/22 09:41:53;;;;;;;24.10;12.15;;;;;;;4.76;58.12;100376.29;1770713;79;21540;-59
2022/12/22 09:44:35;;;;;;;26.27;14.25;;;;;;;4.76;57.88;100386.72;1771258;80;21047;-60
2022/12/22 09:47:07;;;;;;;24.43;14.05;;;;;;;4.76;58.03;100379.72;1767553;80;21152;-59
2022/12/22 09:49:33;;;;;;;37.38;25.97;;;;;;;4.77;57.93;100376.64;1768004;80;21944;-59
2022/12/22 09:52:02;;;;;;;28.70;13.00;;;;;;;4.79;57.79;100380.00;1742082;80;21094;-60
2022/12/22 09:54:28;;;;;;;18.73;11.57;;;;;;;4.83;57.82;100379.75;1765092;80;21102;-59
2022/12/22 09:56:56;;;;;;;25.82;14.25;;;;;;;4.90;57.80;100372.90;1768268;79;21566;-59
2022/12/22 09:59:26;;;;;;;36.60;25.15;;;;;;;4.94;57.64;100373.09;1767950;80;21100;-59
2022/12/22 10:02:16;;;;;;;26.10;14.60;;;;;;;4.96;57.60;100368.17;1770187;79;21341;-59
2022/12/22 10:05:01;;;;;;;22.32;14.75;;;;;;;5.00;57.50;100364.92;1764790;80;21078;-59
2022/12/22 10:07:38;;;;;;;38.30;25.92;;;;;;;4.99;57.42;100369.75;1768082;79;21038;-59
2022/12/22 10:10:26;;;;;;;21.15;11.95;;;;;;;4.95;57.07;100357.83;1762655;80;21919;-60
2022/12/22 10:12:55;;;;;;;35.73;25.20;;;;;;;4.83;57.24;100359.36;1772356;79;21153;-59
2022/12/22 10:15:21;;;;;;;20.70;13.98;;;;;;;4.77;57.37;100355.31;1767192;80;21042;-60
2022/12/22 10:17:53;;;;;;;25.52;13.88;;;;;;;4.68;57.68;100357.16;1768795;80;21094;-60
2022/12/22 10:20:24;;;;;;;38.92;27.07;;;;;;;4.68;58.03;100352.41;1764684;80;21102;-60
2022/12/22 10:22:57;;;;;;;32.20;25.08;;;;;;;4.68;58.06;100343.29;1766820;80;21093;-60
2022/12/22 10:28:20;;;;;;;26.82;16.07;;;;;;;4.61;58.53;100333.20;1776341;78;22567;-60
2022/12/22 10:30:46;;;;;;;26.42;14.28;;;;;;;4.81;58.02;100334.69;1746511;80;20869;-60
2022/12/22 10:33:17;;;;;;;35.25;23.05;;;;;;;4.97;57.80;100342.92;1752468;80;21955;-60
2022/12/22 10:35:53;;;;;;;21.55;12.85;;;;;;;5.07;57.45;100343.25;1751375;80;20982;-60
2022/12/22 10:38:28;;;;;;;33.58;24.60;;;;;;;5.15;57.20;100337.12;1749813;80;21459;-60
2022/12/22 10:41:16;;;;;;;35.70;25.50;;;;;;;5.15;57.16;100328.83;1743325;80;21615;-60
2022/12/22 10:43:56;;;;;;;25.37;12.60;;;;;;;5.18;57.15;100322.61;1746255;81;21054;-60
2022/12/22 10:46:47;;;;;;;35.23;26.68;;;;;;;5.22;57.15;100316.27;1747588;81;21776;-60
2022/12/22 10:49:36;;;;;;;38.30;28.42;;;;;;;5.25;57.14;100316.09;1745890;81;21037;-59
2022/12/22 10:52:26;;;;;;;20.10;13.20;;;;;;;5.25;57.21;100314.78;1753748;80;21428;-59
2022/12/22 10:54:52;;;;;;;25.48;15.30;;;;;;;5.33;57.26;100319.53;1744475;81;21579;-60
2022/12/22 10:57:29;;;;;;;40.50;27.45;;;;;;;5.38;56.96;100317.05;1700068;81;21047;-59
2022/12/22 11:00:01;;;;;;;24.25;14.45;;;;;;;5.33;57.00;100319.09;1748095;80;21758;-59
2022/12/22 11:02:36;;;;;;;22.73;14.35;;;;;;;5.33;56.97;100318.23;1747791;81;21106;-58
2022/12/22 11:05:08;;;;;;;34.67;25.05;;;;;;;5.33;56.94;100313.87;1728709;81;21066;-59
2022/12/22 11:07:39;;;;;;;29.63;14.35;;;;;;;5.31;56.92;100309.22;1728544;80;21019;-59
2022/12/22 11:10:20;;;;;;;33.18;25.30;;;;;;;5.31;57.05;100310.52;1750695;80;21030;-60
2022/12/22 11:13:14;;;;;;;27.45;13.08;;;;;;;5.29;56.88;100307.13;1752285;80;21148;-59
2022/12/22 11:15:52;;;;;;;37.58;25.57;;;;;;;5.24;56.96;100300.52;1713478;80;20983;-59
2022/12/22 11:18:57;;;;;;;34.95;26.70;;;;;;;5.22;57.19;100294.09;1752883;80;21043;-59
2022/12/22 11:21:45;;;;;;;21.00;11.88;;;;;;;5.20;57.18;100301.17;1742569;80;21523;-59
2022/12/22 11:25:00;;;;;;;37.00;24.85;;;;;;;5.18;57.47;100294.73;1743759;80;21011;-59
2022/12/22 11:27:39;;;;;;;23.45;12.15;;;;;;;5.17;57.36;100298.27;1747250;80;21225;-59
2022/12/22 11:30:17;;;;;;;24.37;13.62;;;;;;;5.15;57.46;100303.22;1744603;81;22261;-60
2022/12/22 11:33:07;;;;;;;36.75;25.92;;;;;;;5.16;57.64;100312.25;1731818;80;20991;-60
2022/12/22 11:36:03;;;;;;;40.85;27.85;;;;;;;5.19;57.57;100309.47;1727730;81;21560;-59
2022/12/22 11:38:54;;;;;;;19.75;9.88;;;;;;;5.21;57.53;100301.53;1747894;81;21043;-60
2022/12/22 11:41:42;;;;;;;37.67;27.65;;;;;;;5.24;57.44;100304.44;1742891;80;21150;-59
2022/12/22 11:44:40;;;;;;;25.35;11.75;;;;;;;5.18;57.46;100305.17;1745257;81;21567;-59
2022/12/22 11:47:30;;;;;;;34.70;25.43;;;;;;;5.18;57.58;100304.34;1739703;80;21531;-60
2022/12/22 11:50:34;;;;;;;25.15;13.40;;;;;;;5.19;57.74;100303.39;1747226;81;21030;-59
2022/12/22 11:53:25;;;;;;;22.05;11.70;;;;;;;5.27;57.65;100301.17;1746402;80;21109;-59
2022/12/22 11:56:19;;;;;;;18.90;11.20;;;;;;;5.37;57.34;100297.09;1751241;81;21612;-59
2022/12/22 11:59:08;;;;;;;33.88;24.80;;;;;;;5.43;57.04;100291.13;1747670;81;21023;-60
2022/12/22 12:02:05;;;;;;;21.25;12.82;;;;;;;5.40;57.18;100298.21;1747474;80;21066;-59
2022/12/22 12:05:02;;;;;;;;;;;;;;;5.44;57.13;100311.08;1708776;81;21143;-59
2022/12/22 12:07:57;;;;;;;19.67;11.68;;;;;;;5.38;57.01;100297.47;1749297;80;20221;-59
2022/12/22 12:10:26;;;;;;;21.42;12.58;;;;;;;5.32;57.00;100297.83;1742929;81;21152;-59
2022/12/22 12:13:35;;;;;;;29.15;13.90;;;;;;;5.30;57.19;100310.12;1746348;80;21078;-59
2022/12/22 12:16:17;;;;;;;35.95;25.30;;;;;;;5.29;57.13;100327.18;1744770;81;21119;-59
2022/12/22 12:19:06;;;;;;;27.85;12.63;;;;;;;5.23;57.25;100318.40;1728337;80;21042;-60
2022/12/22 12:21:46;;;;;;;37.65;27.35;;;;;;;5.20;57.40;100319.44;1733001;80;21031;-60
2022/12/22 12:24:27;;;;;;;36.33;25.62;;;;;;;5.24;57.53;100324.83;1731852;81;21194;-60
2022/12/22 12:27:25;;;;;;;21.37;12.28;;;;;;;5.24;57.34;100330.05;1734457;80;21828;-59
2022/12/22 12:30:05;;;;;;;40.70;25.85;;;;;;;5.23;57.33;100329.70;1745268;80;21551;-59
2022/12/22 12:32:54;;;;;;;27.77;14.98;;;;;;;5.17;57.32;100337.39;1744854;80;21019;-58
2022/12/22 12:35:38;;;;;;;23.25;12.47;;;;;;;5.12;57.44;100330.78;1748881;80;21069;-59
2022/12/22 12:38:10;;;;;;;35.38;25.88;;;;;;;5.06;57.58;100330.68;1748225;81;21260;-58
2022/12/22 12:40:52;;;;;;;36.40;25.77;;;;;;;5.02;57.77;100326.08;1748786;80;21050;-59
2022/12/22 12:43:19;;;;;;;30.88;14.25;;;;;;;5.03;57.92;100322.55;1740385;81;21542;-59
2022/12/22 12:45:47;;;;;;;24.92;13.32;;;;;;;5.07;57.78;100318.47;1734815;80;21552;-60
2022/12/22 12:48:26;;;;;;;23.40;14.90;;;;;;;5.09;57.76;100317.44;1739484;81;21559;-60
2022/12/22 12:50:54;;;;;;;21.35;12.98;;;;;;;5.09;57.85;100314.00;1751333;80;21885;-60
2022/12/22 12:53:25;;;;;;;36.63;26.62;;;;;;;5.13;57.88;100316.81;1718359;83;21022;-59
2022/12/22 12:55:58;;;;;;;25.97;13.48;;;;;;;5.13;57.83;100314.21;1690444;84;21617;-60
2022/12/22 12:58:43;;;;;;;39.33;26.90;;;;;;;5.17;57.96;100315.70;1689726;84;21163;-60
2022/12/22 13:01:12;;;;;;;36.68;24.00;;;;;;;5.29;57.94;100307.13;1699120;83;21028;-60
2022/12/22 13:03:40;;;;;;;39.42;26.77;;;;;;;5.46;57.78;100303.99;1686795;83;21194;-59
2022/12/22 13:06:09;;;;;;;38.15;27.48;;;;;;;5.58;57.65;100303.24;1713033;82;20971;-60
2022/12/22 13:09:02;;;;;;;24.95;14.28;;;;;;;5.64;57.63;100295.53;1685272;83;21536;-59
2022/12/22 13:11:32;;;;;;;42.35;28.77;;;;;;;5.70;57.39;100301.22;1696762;82;21111;-59
2022/12/22 13:13:59;;;;;;;36.38;25.85;;;;;;;5.73;57.35;100301.03;1697025;83;21054;-59
2022/12/22 13:16:29;;;;;;;23.57;13.60;;;;;;;5.75;57.17;100296.55;1696531;83;21150;-59
2022/12/22 13:19:00;;;;;;;36.25;25.40;;;;;;;5.74;57.05;100292.73;1698134;83;21072;-59
2022/12/22 13:21:27;;;;;;;31.27;15.28;;;;;;;5.68;57.03;100287.42;1697615;83;21600;-59
2022/12/22 13:24:05;;;;;;;25.17;14.85;;;;;;;5.66;57.08;100279.30;1717888;82;21169;-59
2022/12/22 13:26:34;;;;;;;36.83;27.40;;;;;;;5.61;57.23;100286.58;1686352;83;21150;-60
2022/12/22 13:29:28;;;;;;;38.10;27.87;;;;;;;5.59;57.31;100293.19;1709420;83;21231;-60
2022/12/22 13:32:01;;;;;;;40.43;28.83;;;;;;;5.55;57.41;100290.41;1745000;82;21058;-59
2022/12/22 13:34:36;;;;;;;42.95;30.57;;;;;;;5.50;57.54;100296.38;1744247;82;21098;-59
2022/12/22 13:37:21;;;;;;;23.57;13.50;;;;;;;5.45;57.72;100299.72;1746422;80;21015;-60
2022/12/22 13:40:12;;;;;;;26.23;14.33;;;;;;;5.39;57.87;100293.91;1736786;80;21090;-59
2022/12/22 13:43:03;;;;;;;43.95;21.23;;;;;;;5.33;58.00;100293.44;1736564;80;21177;-60
2022/12/22 13:45:41;;;;;;;42.03;29.27;;;;;;;5.28;58.25;100297.65;1752357;80;20997;-60
2022/12/22 13:48:18;;;;;;;48.25;34.08;;;;;;;5.22;58.29;100304.52;1701153;82;22287;-59
2022/12/22 13:51:01;;;;;;;30.48;13.75;;;;;;;5.15;58.49;100300.61;1734333;80;21055;-60
2022/12/22 13:53:37;;;;;;;44.27;30.35;;;;;;;5.10;58.69;100308.69;1751207;80;21043;-59
2022/12/22 13:56:07;;;;;;;27.42;16.27;;;;;;;5.06;58.90;100312.42;1739451;80;21164;-59
2022/12/22 13:58:37;;;;;;;28.15;14.98;;;;;;;5.06;59.00;100308.51;1739061;80;21159;-59
2022/12/22 14:01:18;;;;;;;54.80;37.88;;;;;;;5.13;58.97;100299.86;1744381;80;21042;-60
2022/12/22 14:04:02;;;;;;;34.43;21.23;;;;;;;5.21;58.97;100296.31;1743164;80;21046;-60
2022/12/22 14:06:34;;;;;;;32.55;19.45;;;;;;;5.31;59.00;100288.78;1732405;80;21089;-60
2022/12/22 14:09:26;;;;;;;51.55;34.55;;;;;;;5.35;58.91;100290.30;1742248;80;22265;-60
2022/12/22 14:12:09;;;;;;;39.67;28.47;;;;;;;5.37;58.86;100303.61;1734395;82;21039;-60
2022/12/22 14:14:38;;;;;;;28.73;14.47;;;;;;;5.36;58.75;100311.08;1742851;80;21027;-58
2022/12/22 14:17:22;;;;;;;46.65;32.30;;;;;;;5.32;58.76;100316.09;1738840;82;21095;-58
2022/12/22 14:19:52;;;;;;;35.48;18.82;;;;;;;5.28;58.83;100310.70;1738339;80;21318;-59
2022/12/22 14:22:27;;;;;;;37.88;22.17;;;;;;;5.25;58.93;100304.83;1754796;80;21332;-59
2022/12/22 14:25:00;;;;;;;36.63;21.55;;;;;;;5.23;59.01;100301.00;1738602;80;21039;-59
2022/12/22 14:29:26;;;;;;;51.75;34.30;;;;;;;5.16;59.24;100300.96;1777895;78;22701;-59
2022/12/22 14:31:55;;;;;;;42.43;30.50;;;;;;;5.20;58.90;100294.17;1741620;80;21046;-58
2022/12/22 14:34:30;;;;;;;43.90;31.57;;;;;;;5.20;58.93;100294.17;1749317;81;22671;-58
2022/12/22 14:39:56;;;;;;;26.95;14.25;;;;;;;4.93;59.78;100297.94;1790025;78;22096;-58
2022/12/22 14:42:23;;;;;;;42.93;30.17;;;;;;;5.08;59.26;100295.35;1777423;79;21729;-59
2022/12/22 14:44:49;;;;;;;38.80;29.07;;;;;;;5.07;59.26;100303.65;1775417;80;21074;-60
2022/12/22 14:47:19;;;;;;;40.48;29.32;;;;;;;5.04;59.24;100299.91;1769144;80;21033;-60
2022/12/22 14:50:01;;;;;;;40.33;28.60;;;;;;;5.02;59.33;100289.56;1777333;79;20995;-59
2022/12/22 14:52:38;;;;;;;47.05;31.73;;;;;;;4.99;59.30;100283.25;1770888;80;21031;-60
2022/12/22 14:55:08;;;;;;;39.38;28.27;;;;;;;5.02;59.37;100283.05;1787309;78;21022;-60
2022/12/22 14:57:39;;;;;;;39.80;28.10;;;;;;;5.10;59.25;100292.22;1768711;79;21266;-60
2022/12/22 15:00:24;;;;;;;43.38;29.37;;;;;;;5.17;59.16;100301.34;1781686;80;21026;-59
2022/12/22 15:02:59;;;;;;;26.40;15.60;;;;;;;5.17;59.16;100298.74;1776474;80;21124;-60
2022/12/22 15:05:37;;;;;;;28.75;16.75;;;;;;;5.15;59.24;100289.70;1786202;80;21151;-60
2022/12/22 15:10:00;;;;;;;42.65;30.00;;;;;;;5.06;59.49;100287.64;1792291;78;22693;-58
2022/12/22 15:12:29;;;;;;;41.63;30.75;;;;;;;5.16;59.11;100294.00;1773222;80;20903;-58
2022/12/22 15:14:56;;;;;;;42.67;30.55;;;;;;;5.13;59.09;100289.43;1742836;80;21061;-59
2022/12/22 15:17:24;;;;;;;24.00;13.50;;;;;;;5.09;59.15;100287.91;1760980;80;21023;-59
2022/12/22 15:19:56;;;;;;;41.13;28.83;;;;;;;5.06;59.25;100292.00;1761274;80;20979;-59
2022/12/22 15:22:22;;;;;;;28.05;13.85;;;;;;;5.02;59.39;100299.17;1763082;78;20995;-58
2022/12/22 15:24:49;;;;;;;37.30;27.48;;;;;;;5.02;59.42;100296.56;1763488;80;21646;-59
2022/12/22 15:27:15;;;;;;;38.15;29.05;;;;;;;5.01;59.46;100290.52;1765919;80;22022;-59
2022/12/22 15:29:42;;;;;;;25.70;14.07;;;;;;;5.03;59.50;100296.95;1773263;80;21476;-59
2022/12/22 15:32:11;;;;;;;27.35;14.47;;;;;;;5.03;59.49;100292.56;1771480;80;21530;-59
2022/12/22 15:34:37;;;;;;;38.70;28.30;;;;;;;5.08;59.51;100286.22;1772635;80;21043;-59